Tiempo atmosférico en la estación meteorológica de Almadén, Ciudad Real (535 m.)



Fecha
DESCASC
Temp. máxima en grados centígrados (hora)
DESCASC
Temp. mínima en grados centígrados (hora)
DESCASC
Temp. media en grados centígrados
DESCASC
Racha de viento máxima en m/sg (hora)
DESCASC
Velocidad máxima media en intervalos de 10 minutos(hora)
DESCASC
Precipitaciones diarias en mm
DESCASC
Precipitaciones de 00:00 a 06:00 en mm
DESCASC
Precipitaciones de 06:00 a 12:00 en mm
DESCASC
Precipitaciones de 12:00 a 18:00 en mm
DESCASC
Precipitaciones de 18:00 a 24:00 en mm
DESCASC
13-10-2019 29 (17:00) 16.1 (08:30) 22.6 12.22 (17:20) 7.78 (18:30) 0 0 0 0 0
12-10-2019 32.2 (15:50) 19.5 (09:00) 25.9 12.5 (17:50) 5 (17:30) 3.6 0 0 3.2 0.4
11-10-2019 30.7 (15:00) 17.9 (08:40) 24.3 7.78 (17:30) 5 (17:00) 0 0 0 0 0
10-10-2019 32.9 (15:40) 17.4 (00:00) 25.2 6.94 (14:20) 3.89 (14:40) 0 0 0 0 0
09-10-2019 32.7 (16:10) 18.3 (00:00) 25.5 6.39 (15:30) 4.17 (00:40) 0 0 0 0 0
08-10-2019 34.9 (17:40) 18.2 (00:00) 26.6 5.56 (12:50) 3.33 (23:59) 0 0 0 0 0
07-10-2019 33.6 (16:40) 15.8 (00:00) 24.7 4.17 (17:40) 1.94 (14:30) 0 0 0 0 0
06-10-2019 30.1 (17:10) 13.1 (00:00) 21.6 4.72 (15:10) 1.94 (13:30) 0 0 0 0 0
05-10-2019 30 (16:30) 13.6 (00:00) 21.8 5 (17:20) 2.5 (13:40) 0 0 0 0 0
04-10-2019 31.1 (16:50) 13.3 (00:00) 22.2 6.39 (16:40) 3.33 (14:20) 0 0 0 0 0
03-10-2019 28.3 (17:00) 12.9 (00:00) 20.6 4.72 (19:10) 1.67 (11:10) 0 0 0 0 0
02-10-2019 26.7 (17:20) 13 (00:00) 19.9 5.83 (19:10) 2.78 (16:30) 0 0 0 0 0
01-10-2019 26.3 (17:40) 17.7 (00:00) 22 8.61 (17:00) 3.89 (17:00) 0 0 0 0 0
30-09-2019 33.6 (16:40) 14.9 (00:00) 24.2 6.11 (16:00) 3.33 (21:50) 0 0 0 0 0
29-09-2019 34.5 (17:10) 17 (00:00) 25.8 6.39 (16:30) 3.61 (01:40) 0 0 0 0 0
28-09-2019 33.8 (17:50) 15.6 (00:00) 24.7 6.67 (15:50) 3.06 (14:20) 0 0 0 0 0
27-09-2019 31.3 (17:20) 15.2 (00:00) 23.2 5.28 (16:40) 3.06 (13:10) 0 0 0 0 0
26-09-2019 31.6 (17:40) 14.2 (00:00) 22.9 7.22 (16:10) 3.61 (16:10) 0 0 0 0 0
25-09-2019 26.4 (17:30) 14.2 (00:00) 20.3 6.94 (04:10) 2.78 (04:10) 0 0 0 0 0
24-09-2019 29.8 (16:40) 13.3 (00:00) 21.5 6.94 (17:20) 2.5 (13:00) 0 0 0 0 0
23-09-2019 27 (18:10) 12.4 (00:00) 19.7 3.89 (15:10) 2.22 (15:30) 0 0 0 0 0
22-09-2019 23.2 (17:00) 14.2 (00:00) 18.7 8.89 (04:40) 5 (04:50) 3.8 1 2.8 0 0
21-09-2019 22.7 (15:30) 18.2 (00:00) 20.5 11.67 (15:20) 6.67 (16:10) 0 0 0 0 0
20-09-2019 26.9 (17:10) 18.4 (00:00) 22.6 10.83 (20:40) 6.67 (18:50) 0 0 0 0 0
19-09-2019 31.6 (17:00) 17.2 (00:00) 24.4 6.39 (16:50) 3.61 (20:40) 0 0 0 0 0
18-09-2019 31.3 (15:50) 17.5 (00:00) 24.4 6.11 (00:20) 3.33 (22:40) 0 0 0 0 0
17-09-2019 31.4 (14:30) 19.2 (00:00) 25.3 18.61 (16:00) 6.39 (15:50) 2 0 0 2 0
16-09-2019 30.9 (15:40) 19.8 (00:00) 25.3 7.22 (14:30) 3.89 (14:30) 0 0 0 0 0
15-09-2019 26.4 (17:00) 16.5 (00:00) 21.4 6.11 (16:40) 3.61 (16:40) 2.6 2.6 0 0 0

Gráficas

Temp. máximas Temp. mínimas Temp. medias Precipitaciones Rachas de viento máximas Velocidades máximas media en intervalos de 10 minutos

Datos horarios

Fecha y hora oficial Temperatura (ºC) Velocidad del viento (km/h) Dirección del viento Racha (km/h) Dirección de racha Precipitación (mm) Presión (hPa) Tendencia (hPa) Humedad (%)
2019-10-14 23:00:00 11.8 0 Calma 9 Sudoeste 0 -- -- 91
2019-10-14 22:00:00 11.9 7 Sudoeste 15 Oeste 0 -- -- 90
2019-10-14 21:00:00 11.9 6 Sudoeste 13 Sudoeste 0 -- -- 90
2019-10-14 20:00:00 12.2 4 Noroeste 19 Norte 1.2 -- -- 92
2019-10-14 19:00:00 12.5 6 Noroeste 40 Oeste 0.2 -- -- 92
2019-10-14 18:00:00 14.5 15 Noroeste 50 Oeste 0 -- -- 76
2019-10-14 17:00:00 20.2 13 Noroeste 40 Oeste 0 -- -- 42
2019-10-14 16:00:00 20.5 13 Oeste 52 Sur 0 -- -- 44
2019-10-14 15:00:00 20.7 10 Oeste 32 Sudoeste 0 -- -- 45
2019-10-14 14:00:00 20.2 8 Oeste 32 Noroeste 0 -- -- 56
2019-10-14 13:00:00 18.5 10 Noroeste 25 Oeste 0 -- -- 61
2019-10-14 12:00:00 17.6 6 Noroeste 25 Noroeste 0 -- -- 68
2019-10-14 11:00:00 18.5 6 Oeste 53 Sur 0 -- -- 71
2019-10-14 10:00:00 17.8 23 Sudoeste 48 Sudoeste 0 -- -- 72
2019-10-14 09:00:00 17.6 25 Sur 45 Sudoeste 0 -- -- 72
2019-10-14 08:00:00 17.5 22 Sudoeste 50 Sur 0 -- -- 74
2019-10-14 07:00:00 18.7 35 Sudoeste 62 Sur 0 -- -- 70
2019-10-14 06:00:00 19.1 33 Sudoeste 54 Sur 0 -- -- 67
2019-10-14 05:00:00 20.4 15 Sudoeste 30 Sudoeste 0 -- -- 55
2019-10-14 04:00:00 21.6 16 Sudoeste 28 Sudoeste 0 -- -- 44
2019-10-14 03:00:00 21.6 9 Sur 30 Sur 0 -- -- 44
2019-10-14 02:00:00 22.6 17 Sur 32 Sur 0 -- -- 44
2019-10-14 01:00:00 22.2 5 Sur 14 Sur 0 -- -- 49
2019-10-14 00:00:00 22.7 4 Sudeste 12 Sur 0 -- -- 46
2019-10-13 23:00:00 22.9 3 Sur 7 Sur 0 -- -- 45
2019-10-13 22:00:00 23.8 3 Sudoeste 16 Oeste 0 -- -- 41
2019-10-13 21:00:00 24.9 9 Sudoeste 24 Sudeste 0 -- -- 38
2019-10-13 20:00:00 25.6 12 Sudoeste 35 Sur 0 -- -- 35
2019-10-13 19:00:00 26.9 20 Sudoeste 43 Sudoeste 0 -- -- 31
2019-10-13 18:00:00 28.4 21 Sudoeste 44 Sudoeste 0 -- -- 27
2019-10-13 17:00:00 29 20 Sudoeste 37 Sudoeste 0 -- -- 29
2019-10-13 16:00:00 27.9 19 Sudoeste 36 Sudoeste 0 -- -- 37
2019-10-13 15:00:00 26.6 16 Sur 32 Sur 0 -- -- 43
2019-10-13 14:00:00 24.8 14 Sudoeste 23 Sudoeste 0 -- -- 48
2019-10-13 13:00:00 22.4 12 Sur 22 Sudoeste 0 -- -- 58
2019-10-13 12:00:00 20.2 9 Sur 18 Sur 0 -- -- 69
2019-10-13 11:00:00 18.2 6 Sudoeste 14 Sur 0 -- -- 76
2019-10-13 10:00:00 16.8 5 Sudoeste 18 Sudoeste 0 -- -- 84
2019-10-13 09:00:00 16.3 8 Sudoeste 14 Sudoeste 0 -- -- 89
2019-10-13 08:00:00 16.5 6 Sudoeste 17 Sudoeste 0 -- -- 88
2019-10-13 07:00:00 16.7 13 Sur 20 Sudoeste 0 -- -- 87
2019-10-13 06:00:00 17.4 7 Sur 23 Sur 0 -- -- 81
2019-10-13 05:00:00 18 8 Sudoeste 16 Sudoeste 0 -- -- 77
2019-10-13 04:00:00 18.7 4 Sur 24 Sur 0 -- -- 75
2019-10-13 03:00:00 19.9 12 Sur 22 Sur 0 -- -- 72
2019-10-13 02:00:00 20.6 10 Sur 14 Sudoeste 0 -- -- 69
2019-10-13 01:00:00 21.8 4 Sur 14 Sudoeste 0 -- -- 65
2019-10-13 00:00:00 22.5 7 Sudoeste 21 Sur 0 -- -- 62
2019-10-12 23:00:00 23.3 7 Sudoeste 16 Sudoeste 0 -- -- 54
2019-10-12 22:00:00 22.6 3 Este 10 Norte 0 -- -- 49
2019-10-12 21:00:00 23.3 3 Norte 10 Norte 0.2 -- -- 52
2019-10-12 20:00:00 24.7 0 Calma 12 Oeste 0 -- -- 48
2019-10-12 19:00:00 26.3 5 Sudoeste 18 Sudeste 0.2 -- -- 40
2019-10-12 18:00:00 23.3 4 Oeste 45 Oeste 3.2 -- -- 48
2019-10-12 17:00:00 29.3 9 Sur 23 Sur 0 -- -- 26
2019-10-12 16:00:00 32.1 9 Sudoeste 17 Sudoeste 0 -- -- 25
2019-10-12 15:00:00 30.6 5 Este 18 Sudeste 0 -- -- 28
2019-10-12 14:00:00 27.9 6 Sur 17 Sudoeste 0 -- -- 35
2019-10-12 13:00:00 26.3 6 Sur 11 Sur 0 -- -- 36
2019-10-12 12:00:00 23.2 3 Nordeste 6 Sur 0 -- -- 41
2019-10-12 11:00:00 22 3 Sur 21 Sudeste 0 -- -- 45
2019-10-12 10:00:00 21.6 5 Sudeste 16 Sur 0 -- -- 43
2019-10-12 09:00:00 19.5 6 Sur 15 Sur 0 -- -- 50
2019-10-12 08:00:00 20.2 3 Sudeste 11 Este 0 -- -- 49
2019-10-12 07:00:00 20.4 2 Este 7 Nordeste 0 -- -- 48
2019-10-12 06:00:00 20.9 4 Sudoeste 14 Sudoeste 0 -- -- 47
2019-10-12 05:00:00 21.1 12 Sur 17 Sur 0 -- -- 45
2019-10-12 04:00:00 21.4 3 Sur 12 Sudoeste 0 -- -- 44
2019-10-12 03:00:00 22.1 0 Calma 13 Sur 0 -- -- 43
2019-10-12 02:00:00 21.9 6 Sur 16 Sudoeste 0 -- -- 43
2019-10-12 01:00:00 22.3 4 Sudoeste 9 Sudoeste 0 -- -- 43
2019-10-12 00:00:00 23.1 8 Sudoeste 24 Sur 0 -- -- 43
2019-10-11 23:00:00 23.8 13 Sudoeste 22 Sudoeste 0 -- -- 43
2019-10-11 22:00:00 24.7 17 Sudoeste 28 Sudoeste 0 -- -- 40
2019-10-11 21:00:00 25.2 0 Calma 25 Sur 0 -- -- 35
2019-10-11 20:00:00 26.1 16 Sur 28 Sur 0 -- -- 31
2019-10-11 19:00:00 27.3 12 Sur 22 Sur 0 -- -- 32
2019-10-11 18:00:00 28 14 Sur 28 Sur 0 -- -- 31
2019-10-11 17:00:00 29.1 18 Sudoeste 27 Sudoeste 0 -- -- 29
2019-10-11 16:00:00 30.3 8 Sur 25 Sudoeste 0 -- -- 28
2019-10-11 15:00:00 30.7 13 Sur 24 Sudoeste 0 -- -- 30
2019-10-11 14:00:00 29.2 11 Sudoeste 22 Sudoeste 0 -- -- 36
2019-10-11 13:00:00 27.4 6 Sudeste 13 Este 0 -- -- 42
2019-10-11 12:00:00 25.5 5 Sur 14 Sur 0 -- -- 46
2019-10-11 11:00:00 22.6 5 Este 9 Este 0 -- -- 53
2019-10-11 10:00:00 19.2 0 Calma 6 Sudoeste 0 -- -- 65
2019-10-11 09:00:00 18 2 Sur 9 Sudoeste 0 -- -- 66
2019-10-11 08:00:00 18.7 8 Sur 11 Sudoeste 0 -- -- 64
2019-10-11 07:00:00 18.7 6 Sur 11 Sudoeste 0 -- -- 63
2019-10-11 06:00:00 19.1 3 Sur 5 Sur 0 -- -- 62
2019-10-11 05:00:00 19.9 2 Sur 5 Sur 0 -- -- 59
2019-10-11 04:00:00 20.7 0 Calma 2 Sur 0 -- -- 57
2019-10-11 03:00:00 21.6 0 Calma 7 Sudoeste 0 -- -- 54
2019-10-11 02:00:00 22.5 3 Sudoeste 8 Sur 0 -- -- 51
2019-10-11 01:00:00 22.8 6 Sudoeste 10 Sudoeste 0 -- -- 51
2019-10-11 00:00:00 24.2 0 Calma 15 Sudoeste 0 -- -- 47
2019-10-10 23:00:00 25.2 11 Sudoeste 15 Sudoeste 0 -- -- 45
2019-10-10 22:00:00 26 8 Sudoeste 12 Oeste 0 -- -- 42
2019-10-10 21:00:00 27.3 3 Sudoeste 16 Sur 0 -- -- 38
2019-10-10 20:00:00 28.5 6 Sur 19 Sur 0 -- -- 36
2019-10-10 19:00:00 30.5 13 Sudoeste 22 Sur 0 -- -- 32
2019-10-10 18:00:00 32.6 8 Sudoeste 25 Sur 0 -- -- 28
2019-10-10 17:00:00 32.8 9 Sudoeste 21 Sudoeste 0 -- -- 28
2019-10-10 16:00:00 32.1 8 Oeste 23 Sudoeste 0 -- -- 31
2019-10-10 15:00:00 31.9 10 Sur 25 Sudoeste 0 -- -- 32
2019-10-10 14:00:00 30.3 7 Sudoeste 20 Sudoeste 0 -- -- 34
2019-10-10 13:00:00 28.8 9 Sudoeste 19 Sudoeste 0 -- -- 36
2019-10-10 12:00:00 26.2 6 Sudoeste 10 Sudoeste 0 -- -- 42
2019-10-10 11:00:00 23 4 Sudoeste 9 Sudeste 0 -- -- 49
2019-10-10 10:00:00 18.6 2 Nordeste 8 Nordeste 0 -- -- 60
2019-10-10 09:00:00 17.5 0 Calma 4 Nordeste 0 -- -- 62
2019-10-10 08:00:00 17.7 0 Calma 2 Este 0 -- -- 60
2019-10-10 07:00:00 17.9 0 Calma 2 Sur 0 -- -- 53
2019-10-10 06:00:00 18.3 0 Calma 3 Nordeste 0 -- -- 49
2019-10-10 05:00:00 18.9 0 Calma 6 Nordeste 0 -- -- 46
2019-10-10 04:00:00 19.8 0 Calma 5 Sur 0 -- -- 46
2019-10-10 03:00:00 20.7 0 Calma 6 Norte 0 -- -- 42
2019-10-10 02:00:00 21.5 0 Calma 4 Nordeste 0 -- -- 43
2019-10-10 01:00:00 22.5 0 Calma 7 Norte 0 -- -- 43
2019-10-10 00:00:00 22.7 0 Calma 5 Noroeste 0 -- -- 46
2019-10-09 23:00:00 23.6 2 Norte 5 Norte 0 -- -- 47
2019-10-09 22:00:00 24.6 0 Calma 5 Nordeste 0 -- -- 46
2019-10-09 21:00:00 25.5 0 Calma 9 Noroeste 0 -- -- 45
2019-10-09 20:00:00 26.8 2 Noroeste 10 Sudoeste 0 -- -- 41
2019-10-09 19:00:00 28.6 3 Oeste 13 Oeste 0 -- -- 39
2019-10-09 18:00:00 31.1 5 Oeste 15 Noroeste 0 -- -- 35
2019-10-09 17:00:00 31.3 4 Noroeste 20 Oeste 0 -- -- 34
2019-10-09 16:00:00 32.5 8 Oeste 23 Sudoeste 0 -- -- 29
2019-10-09 15:00:00 31.7 7 Oeste 22 Sudoeste 0 -- -- 28
2019-10-09 14:00:00 30.7 12 Sur 22 Sudoeste 0 -- -- 32
2019-10-09 13:00:00 28 9 Sur 15 Sur 0 -- -- 36
2019-10-09 12:00:00 25.6 10 Sur 14 Sur 0 -- -- 41
2019-10-09 11:00:00 22.8 8 Sur 12 Sur 0 -- -- 46
2019-10-09 10:00:00 18.5 2 Sur 9 Sur 0 -- -- 57
2019-10-09 09:00:00 18.5 0 Calma 4 Oeste 0 -- -- 57
2019-10-09 08:00:00 18.9 0 Calma 7 Oeste 0 -- -- 54
2019-10-09 07:00:00 18.6 0 Calma 7 Sur 0 -- -- 55
2019-10-09 06:00:00 20.1 5 Sur 13 Sudoeste 0 -- -- 50
2019-10-09 05:00:00 21.4 6 Sur 10 Sudeste 0 -- -- 47
2019-10-09 04:00:00 22.1 6 Sur 13 Sur 0 -- -- 45
2019-10-09 03:00:00 22.9 2 Este 8 Sur 0 -- -- 43
2019-10-09 02:00:00 23.6 2 Nordeste 14 Sudoeste 0 -- -- 42
2019-10-09 01:00:00 24.2 12 Sudoeste 20 Sudoeste 0 -- -- 40
2019-10-09 00:00:00 24.9 12 Sudoeste 17 Sudoeste 0 -- -- 36
2019-10-08 23:00:00 25.2 3 Sur 8 Sudoeste 0 -- -- 33
2019-10-08 22:00:00 26.2 4 Sudeste 8 Sudeste 0 -- -- 32
2019-10-08 21:00:00 27.8 0 Calma 5 Norte 0 -- -- 30
2019-10-08 20:00:00 29.6 0 Calma 6 Sudoeste 0 -- -- 27
2019-10-08 19:00:00 32.1 6 Sur 16 Sudoeste 0 -- -- 24
2019-10-08 18:00:00 34.4 3 Noroeste 14 Sur 0 -- -- 23
2019-10-08 17:00:00 34.6 10 Sur 18 Sur 0 -- -- 23
2019-10-08 16:00:00 33.5 5 Oeste 15 Oeste 0 -- -- 24
2019-10-08 15:00:00 32.6 8 Sudoeste 17 Sudoeste 0 -- -- 25
2019-10-08 14:00:00 32.3 6 Sudoeste 16 Sudoeste 0 -- -- 26
2019-10-08 13:00:00 30.3 9 Sur 20 Sudoeste 0 -- -- 29
2019-10-08 12:00:00 27.8 4 Sur 9 Sudoeste 0 -- -- 34
2019-10-08 11:00:00 24.1 4 Sudoeste 8 Sur 0 -- -- 40
2019-10-08 10:00:00 20.3 2 Sudoeste 8 Nordeste 0 -- -- 48
2019-10-08 09:00:00 18.8 0 Calma 6 Nordeste 0 -- -- 50
2019-10-08 08:00:00 18.6 0 Calma 9 Este 0 -- -- 49
2019-10-08 07:00:00 18.3 2 Oeste 5 Oeste 0 -- -- 50
2019-10-08 06:00:00 18.3 2 Nordeste 5 Nordeste 0 -- -- 49
2019-10-08 05:00:00 19.2 0 Calma 5 Nordeste 0 -- -- 46
2019-10-08 04:00:00 19.8 0 Calma 5 Nordeste 0 -- -- 45
2019-10-08 03:00:00 20.6 0 Calma 8 Sur 0 -- -- 43
2019-10-08 02:00:00 21.3 2 Sudeste 6 Norte 0 -- -- 40
2019-10-08 01:00:00 22.5 3 Norte 6 Norte 0 -- -- 37
2019-10-08 00:00:00 23.6 0 Calma 6 Norte 0 -- -- 35
2019-10-07 23:00:00 24.6 2 Norte 4 Norte 0 -- -- 33
2019-10-07 22:00:00 25 0 Calma 5 Norte 0 -- -- 33
2019-10-07 21:00:00 26.4 0 Calma 5 Oeste 0 -- -- 30
2019-10-07 20:00:00 28.1 2 Noroeste 8 Noroeste 0 -- -- 28
2019-10-07 19:00:00 30.3 3 Noroeste 13 Norte 0 -- -- 25
2019-10-07 18:00:00 32.9 3 Noroeste 15 Norte 0 -- -- 23
2019-10-07 17:00:00 32.7 4 Norte 12 Norte 0 -- -- 22
2019-10-07 16:00:00 31.9 3 Nordeste 14 Este 0 -- -- 22
2019-10-07 15:00:00 30.9 4 Nordeste 15 Nordeste 0 -- -- 23
2019-10-07 14:00:00 29.7 5 Nordeste 14 Norte 0 -- -- 24
2019-10-07 13:00:00 28 6 Nordeste 14 Nordeste 0 -- -- 28
2019-10-07 12:00:00 27.6 7 Sur 10 Sur 0 -- -- 30
2019-10-07 11:00:00 22.8 4 Este 8 Este 0 -- -- 37
2019-10-07 10:00:00 17.8 3 Nordeste 5 Norte 0 -- -- 49
2019-10-07 09:00:00 16 2 Sur 5 Nordeste 0 -- -- 51
2019-10-07 08:00:00 15.8 0 Calma 4 Nordeste 0 -- -- 52
2019-10-07 07:00:00 15.9 0 Calma 4 Nordeste 0 -- -- 51
2019-10-07 06:00:00 16.6 3 Nordeste 5 Nordeste 0 -- -- 48
2019-10-07 05:00:00 17.3 0 Calma 5 Norte 0 -- -- 47
2019-10-07 04:00:00 17.9 0 Calma 6 Nordeste 0 -- -- 46
2019-10-07 03:00:00 18.7 0 Calma 3 Sudeste 0 -- -- 45
2019-10-07 02:00:00 19.4 0 Calma 4 Sudeste 0 -- -- 43
2019-10-07 01:00:00 20.6 0 Calma 4 Sur 0 -- -- 40
2019-10-07 00:00:00 21.1 0 Calma 3 Sur 0 -- -- 39
2019-10-06 23:00:00 22.6 0 Calma 5 Norte 0 -- -- 36
2019-10-06 22:00:00 23.5 0 Calma 6 Noroeste 0 -- -- 32
2019-10-06 21:00:00 24.1 2 Noroeste 10 Noroeste 0 -- -- 31
2019-10-06 20:00:00 25.1 2 Noroeste 12 Noroeste 0 -- -- 29
2019-10-06 19:00:00 27.1 4 Oeste 15 Sudoeste 0 -- -- 25
2019-10-06 18:00:00 28.9 6 Noroeste 15 Sudoeste 0 -- -- 20
2019-10-06 17:00:00 29.8 5 Oeste 17 Oeste 0 -- -- 20
2019-10-06 16:00:00 29.9 6 Oeste 17 Noroeste 0 -- -- 26
2019-10-06 15:00:00 28.9 3 Noroeste 16 Sudoeste 0 -- -- 26
2019-10-06 14:00:00 28.2 3 Noroeste 14 Sudoeste 0 -- -- 32
2019-10-06 13:00:00 26.1 5 Sudoeste 11 Sudoeste 0 -- -- 36
2019-10-06 12:00:00 23.3 5 Sur 10 Sur 0 -- -- 41
2019-10-06 11:00:00 19.8 2 Sudeste 5 Sudoeste 0 -- -- 49
2019-10-06 10:00:00 14.9 3 Sur 4 Sur 0 -- -- 61
2019-10-06 09:00:00 13.1 0 Calma 8 Sur 0 -- -- 66
2019-10-06 08:00:00 13.5 2 Sudoeste 6 Sur 0 -- -- 64
2019-10-06 07:00:00 13.6 0 Calma 8 Sur 0 -- -- 65
2019-10-06 06:00:00 14.9 0 Calma 4 Norte 0 -- -- 60
2019-10-06 05:00:00 15.6 0 Calma 5 Nordeste 0 -- -- 57
2019-10-06 04:00:00 16.9 0 Calma 3 Nordeste 0 -- -- 54
2019-10-06 03:00:00 17.7 0 Calma 3 Noroeste 0 -- -- 51
2019-10-06 02:00:00 18.5 0 Calma 4 Oeste 0 -- -- 49
2019-10-06 01:00:00 18.9 0 Calma 6 Norte 0 -- -- 47
2019-10-06 00:00:00 20 0 Calma 8 Oeste 0 -- -- 42
2019-10-05 23:00:00 20.5 0 Calma 6 Noroeste 0 -- -- 41
2019-10-05 22:00:00 21.5 0 Calma 8 Noroeste 0 -- -- 43
2019-10-05 21:00:00 23.1 0 Calma 7 Oeste 0 -- -- 38
2019-10-05 20:00:00 24.5 2 Noroeste 14 Noroeste 0 -- -- 37
2019-10-05 19:00:00 26.3 3 Noroeste 13 Noroeste 0 -- -- 36
2019-10-05 18:00:00 28.6 5 Oeste 18 Oeste 0 -- -- 34
2019-10-05 17:00:00 29.5 4 Noroeste 16 Oeste 0 -- -- 31
2019-10-05 16:00:00 29.2 5 Oeste 17 Noroeste 0 -- -- 34
2019-10-05 15:00:00 27.5 5 Norte 12 Norte 0 -- -- 36
2019-10-05 14:00:00 26.7 5 Noroeste 16 Sudoeste 0 -- -- 41
2019-10-05 13:00:00 25.5 3 Sudoeste 12 Sudoeste 0 -- -- 45
2019-10-05 12:00:00 23.3 5 Sur 12 Sudoeste 0 -- -- 51
2019-10-05 11:00:00 20.2 3 Sudoeste 6 Oeste 0 -- -- 60
2019-10-05 10:00:00 16 0 Calma 2 Sudoeste 0 -- -- 74
2019-10-05 09:00:00 13.8 0 Calma 4 Sudoeste 0 -- -- 79
2019-10-05 08:00:00 14.7 0 Calma 3 Sudoeste 0 -- -- 75
2019-10-05 07:00:00 15.2 0 Calma 2 Nordeste 0 -- -- 72
2019-10-05 06:00:00 16.1 0 Calma 2 Sur 0 -- -- 69
2019-10-05 05:00:00 17.2 0 Calma 3 Oeste 0 -- -- 63
2019-10-05 04:00:00 17.5 0 Calma 2 Sudoeste 0 -- -- 59
2019-10-05 03:00:00 18.5 0 Calma 2 Norte 0 -- -- 55
2019-10-05 02:00:00 19.2 0 Calma 3 Norte 0 -- -- 52
2019-10-05 01:00:00 20.2 0 Calma 6 Oeste 0 -- -- 50
2019-10-05 00:00:00 20.3 0 Calma 4 Oeste 0 -- -- 50
2019-10-04 23:00:00 21 0 Calma 4 Oeste 0 -- -- 52
2019-10-04 22:00:00 22.1 0 Calma 10 Oeste 0 -- -- 52
2019-10-04 21:00:00 23.3 2 Noroeste 8 Oeste 0 -- -- 47
2019-10-04 20:00:00 24.7 3 Noroeste 13 Oeste 0 -- -- 44
2019-10-04 19:00:00 26.9 5 Noroeste 15 Oeste 0 -- -- 39
2019-10-04 18:00:00 29.1 6 Noroeste 17 Noroeste 0 -- -- 31
2019-10-04 17:00:00 30.8 5 Oeste 23 Sudoeste 0 -- -- 23
2019-10-04 16:00:00 30.6 11 Sudoeste 21 Sudoeste 0 -- -- 22
2019-10-04 15:00:00 29.8 9 Sudoeste 20 Sudoeste 0 -- -- 23
2019-10-04 14:00:00 28.9 10 Sur 17 Sur 0 -- -- 26
2019-10-04 13:00:00 26.3 8 Sur 15 Sur 0 -- -- 31
2019-10-04 12:00:00 23 4 Sur 10 Sudoeste 0 -- -- 37
2019-10-04 11:00:00 19.9 5 Sudoeste 7 Sur 0 -- -- 44
2019-10-04 10:00:00 14.5 0 Calma 9 Sur 0 -- -- 59
2019-10-04 09:00:00 13.4 3 Sur 8 Sur 0 -- -- 59
2019-10-04 08:00:00 13.5 0 Calma 5 Norte 0 -- -- 60
2019-10-04 07:00:00 13.6 0 Calma 7 Sur 0 -- -- 59
2019-10-04 06:00:00 14.3 0 Calma 3 Sur 0 -- -- 56
2019-10-04 05:00:00 15.3 0 Calma 4 Nordeste 0 -- -- 53
2019-10-04 04:00:00 16 0 Calma 3 Sur 0 -- -- 51
2019-10-04 03:00:00 17.2 0 Calma 4 Oeste 0 -- -- 48
2019-10-04 02:00:00 17.8 0 Calma 5 Sudoeste 0 -- -- 45
2019-10-04 01:00:00 19 2 Sur 4 Sur 0 -- -- 43
2019-10-04 00:00:00 20.4 0 Calma 2 Oeste 0 -- -- 41
2019-10-03 23:00:00 21.2 0 Calma 4 Noroeste 0 -- -- 38
2019-10-03 22:00:00 21.2 0 Calma 3 Oeste 0 -- -- 37
2019-10-03 21:00:00 22.2 0 Calma 5 Oeste 0 -- -- 35
2019-10-03 20:00:00 23.8 3 Oeste 17 Oeste 0 -- -- 32
2019-10-03 19:00:00 25.5 5 Oeste 14 Oeste 0 -- -- 31
2019-10-03 18:00:00 27.7 4 Noroeste 15 Oeste 0 -- -- 25
2019-10-03 17:00:00 28.3 5 Oeste 13 Oeste 0 -- -- 26
2019-10-03 16:00:00 26.6 4 Noroeste 12 Oeste 0 -- -- 29
2019-10-03 15:00:00 26.2 5 Oeste 15 Sudoeste 0 -- -- 30
2019-10-03 14:00:00 26 5 Oeste 13 Oeste 0 -- -- 31
2019-10-03 13:00:00 23.2 3 Norte 9 Noroeste 0 -- -- 35
2019-10-03 12:00:00 21.5 5 Oeste 12 Sur 0 -- -- 40
2019-10-03 11:00:00 19 3 Sudoeste 7 Sudoeste 0 -- -- 48
2019-10-03 10:00:00 14.6 0 Calma 4 Sudoeste 0 -- -- 55
2019-10-03 09:00:00 13 0 Calma 2 Norte 0 -- -- 58
2019-10-03 08:00:00 13.3 0 Calma 2 Sudoeste 0 -- -- 55
2019-10-03 07:00:00 13.7 0 Calma 5 Sur 0 -- -- 53
2019-10-03 06:00:00 14.4 0 Calma 2 Sudoeste 0 -- -- 52
2019-10-03 05:00:00 15.1 0 Calma 4 Norte 0 -- -- 49
2019-10-03 04:00:00 16.5 0 Calma 4 Sur 0 -- -- 46
2019-10-03 03:00:00 17.6 0 Calma 5 Sur 0 -- -- 44
2019-10-03 02:00:00 18 0 Calma 3 Nordeste 0 -- -- 43
2019-10-03 01:00:00 19.1 2 Nordeste 4 Nordeste 0 -- -- 40
2019-10-03 00:00:00 19.7 2 Sudeste 8 Norte 0 -- -- 38
2019-10-02 23:00:00 20.6 0 Calma 6 Oeste 0 -- -- 36
2019-10-02 22:00:00 21.8 0 Calma 8 Oeste 0 -- -- 33
2019-10-02 21:00:00 22.7 2 Noroeste 12 Oeste 0 -- -- 31
2019-10-02 20:00:00 23.9 2 Noroeste 21 Oeste 0 -- -- 27
2019-10-02 19:00:00 25.1 4 Noroeste 17 Oeste 0 -- -- 28
2019-10-02 18:00:00 26.4 6 Oeste 19 Oeste 0 -- -- 30
2019-10-02 17:00:00 26.3 10 Oeste 19 Oeste 0 -- -- 32
2019-10-02 16:00:00 25.9 7 Oeste 21 Oeste 0 -- -- 31
2019-10-02 15:00:00 25.2 7 Oeste 17 Oeste 0 -- -- 32
2019-10-02 14:00:00 23.1 4 Noroeste 15 Oeste 0 -- -- 39
2019-10-02 13:00:00 22.3 3 Noroeste 11 Oeste 0 -- -- 42
2019-10-02 12:00:00 20.4 4 Oeste 11 Sur 0 -- -- 50
2019-10-02 11:00:00 17.4 3 Oeste 13 Sur 0 -- -- 65
2019-10-02 10:00:00 14.2 0 Calma 5 Norte 0 -- -- 80
2019-10-02 09:00:00 13 3 Norte 9 Norte 0 -- -- 85
2019-10-02 08:00:00 13.3 2 Noroeste 9 Noroeste 0 -- -- 83
2019-10-02 07:00:00 13.8 2 Noroeste 9 Oeste 0 -- -- 82
2019-10-02 06:00:00 14.7 5 Oeste 15 Noroeste 0 -- -- 78
2019-10-02 05:00:00 15.6 4 Noroeste 19 Oeste 0 -- -- 72
2019-10-02 04:00:00 16.7 5 Noroeste 18 Noroeste 0 -- -- 65
2019-10-02 03:00:00 17.5 4 Noroeste 14 Oeste 0 -- -- 62
2019-10-02 02:00:00 18.3 4 Noroeste 15 Oeste 0 -- -- 57
2019-10-02 01:00:00 19.7 4 Noroeste 16 Norte 0 -- -- 54
2019-10-02 00:00:00 20.4 3 Noroeste 13 Oeste 0 -- -- 54
2019-10-01 23:00:00 20.8 2 Noroeste 9 Oeste 0 -- -- 52
2019-10-01 22:00:00 21.8 2 Noroeste 10 Oeste 0 -- -- 49
2019-10-01 21:00:00 22.7 2 Noroeste 27 Oeste 0 -- -- 46
2019-10-01 20:00:00 23.6 7 Noroeste 27 Oeste 0 -- -- 45
2019-10-01 19:00:00 24.7 10 Oeste 28 Oeste 0 -- -- 41
2019-10-01 18:00:00 26.3 11 Oeste 26 Oeste 0 -- -- 39
2019-10-01 17:00:00 25.2 14 Oeste 31 Oeste 0 -- -- 43
2019-10-01 16:00:00 25.8 10 Oeste 25 Oeste 0 -- -- 45
2019-10-01 15:00:00 25.6 8 Oeste 19 Oeste 0 -- -- 43
2019-10-01 14:00:00 23.2 7 Oeste 22 Oeste 0 -- -- 51
2019-10-01 13:00:00 23.2 6 Oeste 21 Oeste 0 -- -- 53
2019-10-01 12:00:00 22.4 7 Oeste 16 Oeste 0 -- -- 55
2019-10-01 11:00:00 20.8 5 Oeste 12 Oeste 0 -- -- 60
2019-10-01 10:00:00 18.7 2 Oeste 4 Sur 0 -- -- 67
2019-10-01 09:00:00 17.7 0 Calma 5 Sudoeste 0 -- -- 61
2019-10-01 08:00:00 18.7 2 Noroeste 11 Oeste 0 -- -- 53
2019-10-01 07:00:00 18.8 0 Calma 5 Oeste 0 -- -- 49
2019-10-01 06:00:00 19.8 0 Calma 4 Noroeste 0 -- -- 46
2019-10-01 05:00:00 20.5 3 Sudoeste 8 Oeste 0 -- -- 43
2019-10-01 04:00:00 21.4 0 Calma 6 Sur 0 -- -- 44
2019-10-01 03:00:00 22 4 Este 8 Este 0 -- -- 44
2019-10-01 02:00:00 22.9 4 Sur 9 Sudoeste 0 -- -- 41
2019-10-01 01:00:00 23.7 5 Sudoeste 9 Sudoeste 0 -- -- 39
2019-10-01 00:00:00 24.4 3 Nordeste 16 Sudoeste 0 -- -- 38
2019-09-30 23:00:00 25 10 Sudoeste 18 Sur 0 -- -- 33
2019-09-30 22:00:00 25.9 7 Sudoeste 17 Sur 0 -- -- 28
2019-09-30 21:00:00 27.5 2 Norte 4 Nordeste 0 -- -- 23
2019-09-30 20:00:00 29.2 2 Sur 11 Sur 0 -- -- 21
2019-09-30 19:00:00 31.2 7 Sudoeste 21 Sudoeste 0 -- -- 19
2019-09-30 18:00:00 33.6 8 Sur 18 Oeste 0 -- -- 17
2019-09-30 17:00:00 33.3 10 Sudoeste 18 Sudoeste 0 -- -- 18
2019-09-30 16:00:00 32.9 11 Sudoeste 22 Sudoeste 0 -- -- 19
2019-09-30 15:00:00 32.5 12 Sur 20 Sudoeste 0 -- -- 20
2019-09-30 14:00:00 31.5 7 Sur 13 Sur 0 -- -- 20
2019-09-30 13:00:00 28.8 3 Sur 12 Sur 0 -- -- 26
2019-09-30 12:00:00 25.9 9 Sur 12 Sudoeste 0 -- -- 29
2019-09-30 11:00:00 21.9 5 Sudoeste 8 Sur 0 -- -- 41
2019-09-30 10:00:00 16.6 0 Calma 3 Sur 0 -- -- 51
2019-09-30 09:00:00 15.1 0 Calma 4 Sur 0 -- -- 53
2019-09-30 08:00:00 15.6 0 Calma 4 Sur 0 -- -- 50
2019-09-30 07:00:00 16.5 0 Calma 0 Calma 0 -- -- 49
2019-09-30 06:00:00 17.1 0 Calma 3 Sudeste 0 -- -- 47
2019-09-30 05:00:00 18 0 Calma 2 Sudeste 0 -- -- 43
2019-09-30 04:00:00 19 0 Calma 4 Sur 0 -- -- 41
2019-09-30 03:00:00 20.2 2 Sudeste 4 Sur 0 -- -- 37
2019-09-30 02:00:00 21.6 0 Calma 3 Oeste 0 -- -- 35
2019-09-30 01:00:00 22.4 0 Calma 2 Oeste 0 -- -- 33
2019-09-30 00:00:00 23.3 2 Nordeste 4 Nordeste 0 -- -- 30
2019-09-29 23:00:00 24.1 3 Nordeste 4 Nordeste 0 -- -- 27
2019-09-29 22:00:00 24.8 0 Calma 6 Noroeste 0 -- -- 29
2019-09-29 21:00:00 26.4 3 Noroeste 10 Norte 0 -- -- 26
2019-09-29 20:00:00 28.6 2 Noroeste 11 Noroeste 0 -- -- 24
2019-09-29 19:00:00 30.6 4 Norte 14 Sudoeste 0 -- -- 21
2019-09-29 18:00:00 32.9 4 Noroeste 15 Nordeste 0 -- -- 19
2019-09-29 17:00:00 34.4 5 Oeste 23 Sudoeste 0 -- -- 17
2019-09-29 16:00:00 34.1 10 Sudoeste 18 Oeste 0 -- -- 16
2019-09-29 15:00:00 32.5 8 Sur 21 Sudoeste 0 -- -- 17
2019-09-29 14:00:00 31.3 9 Sudoeste 15 Sur 0 -- -- 21
2019-09-29 13:00:00 28.8 5 Sur 13 Sudoeste 0 -- -- 26
2019-09-29 12:00:00 25.7 9 Sur 14 Sur 0 -- -- 31
2019-09-29 11:00:00 22.6 7 Sur 15 Sur 0 -- -- 38
2019-09-29 10:00:00 19.2 9 Sur 14 Sur 0 -- -- 41
2019-09-29 09:00:00 17.5 5 Sur 11 Sur 0 -- -- 45
2019-09-29 08:00:00 17.8 3 Sur 11 Sur 0 -- -- 44
2019-09-29 07:00:00 17.5 2 Sur 6 Sur 0 -- -- 46
2019-09-29 06:00:00 19 3 Sur 7 Sur 0 -- -- 41
2019-09-29 05:00:00 20.5 0 Calma 9 Sur 0 -- -- 36
2019-09-29 04:00:00 21.6 0 Calma 8 Sur 0 -- -- 33
2019-09-29 03:00:00 22.4 2 Sudeste 17 Sudoeste 0 -- -- 32
2019-09-29 02:00:00 23.3 12 Sudoeste 18 Sudoeste 0 -- -- 30
2019-09-29 01:00:00 24.1 9 Sur 14 Sur 0 -- -- 29
2019-09-29 00:00:00 24.8 9 Sur 16 Sur 0 -- -- 27
2019-09-28 23:00:00 24.7 4 Sur 12 Sur 0 -- -- 30
2019-09-28 22:00:00 25.3 3 Sudeste 6 Sur 0 -- -- 30
2019-09-28 21:00:00 26.9 2 Norte 8 Nordeste 0 -- -- 27
2019-09-28 20:00:00 29.3 0 Calma 8 Norte 0 -- -- 25
2019-09-28 19:00:00 31.6 3 Oeste 12 Oeste 0 -- -- 22
2019-09-28 18:00:00 33.3 4 Noroeste 15 Sudoeste 0 -- -- 21
2019-09-28 17:00:00 33.4 5 Sudoeste 19 Sudoeste 0 -- -- 22
2019-09-28 16:00:00 32.3 5 Oeste 24 Oeste 0 -- -- 22
2019-09-28 15:00:00 31.6 5 Sudoeste 20 Sur 0 -- -- 24
2019-09-28 14:00:00 31.3 6 Sur 12 Sur 0 -- -- 25
2019-09-28 13:00:00 29.6 5 Sur 13 Sudoeste 0 -- -- 27
2019-09-28 12:00:00 26.6 6 Sur 9 Sudoeste 0 -- -- 35
2019-09-28 11:00:00 22 3 Sudoeste 5 Sudoeste 0 -- -- 46
2019-09-28 10:00:00 17.7 0 Calma 2 Sur 0 -- -- 56
2019-09-28 09:00:00 16 0 Calma 4 Norte 0 -- -- 58
2019-09-28 08:00:00 15.9 0 Calma 2 Sur 0 -- -- 58
2019-09-28 07:00:00 16.8 0 Calma 2 Este 0 -- -- 55
2019-09-28 06:00:00 16.6 0 Calma 5 Sudoeste 0 -- -- 56
2019-09-28 05:00:00 17.5 0 Calma 7 Este 0 -- -- 53
2019-09-28 04:00:00 18.8 3 Nordeste 5 Norte 0 -- -- 49
2019-09-28 03:00:00 19.5 0 Calma 3 Nordeste 0 -- -- 48
2019-09-28 02:00:00 20.3 0 Calma 5 Sudoeste 0 -- -- 44
2019-09-28 01:00:00 21.1 2 Sur 4 Sudoeste 0 -- -- 43
2019-09-28 00:00:00 22.2 0 Calma 2 Sur 0 -- -- 39
2019-09-27 23:00:00 22.6 0 Calma 3 Norte 0 -- -- 38
2019-09-27 22:00:00 23.7 0 Calma 4 Oeste 0 -- -- 36
2019-09-27 21:00:00 24.9 0 Calma 6 Noroeste 0 -- -- 34
2019-09-27 20:00:00 26.8 2 Noroeste 13 Oeste 0 -- -- 30
2019-09-27 19:00:00 28.7 4 Noroeste 15 Noroeste 0 -- -- 29
2019-09-27 18:00:00 30.6 7 Oeste 18 Oeste 0 -- -- 26
2019-09-27 17:00:00 31.1 4 Noroeste 19 Oeste 0 -- -- 27
2019-09-27 16:00:00 30.8 6 Noroeste 17 Norte 0 -- -- 27
2019-09-27 15:00:00 30.3 7 Oeste 16 Sudoeste 0 -- -- 28
2019-09-27 14:00:00 30.3 9 Sur 18 Sudoeste 0 -- -- 30
2019-09-27 13:00:00 28.6 8 Sur 14 Sudoeste 0 -- -- 33
2019-09-27 12:00:00 25.5 8 Sur 12 Sur 0 -- -- 38
2019-09-27 11:00:00 21.6 3 Sudoeste 6 Sur 0 -- -- 49
2019-09-27 10:00:00 16.5 0 Calma 5 Sudeste 0 -- -- 64
2019-09-27 09:00:00 15.4 0 Calma 2 Sudeste 0 -- -- 66
2019-09-27 08:00:00 15.2 0 Calma 2 Norte 0 -- -- 65
2019-09-27 07:00:00 15.6 0 Calma 2 Sur 0 -- -- 62
2019-09-27 06:00:00 16.3 0 Calma 3 Sur 0 -- -- 59
2019-09-27 05:00:00 17.5 2 Sur 4 Sur 0 -- -- 55
2019-09-27 04:00:00 18.4 0 Calma 3 Sudeste 0 -- -- 52
2019-09-27 03:00:00 19.5 0 Calma 2 Oeste 0 -- -- 47
2019-09-27 02:00:00 20.3 0 Calma 3 Sudoeste 0 -- -- 46
2019-09-27 01:00:00 21.1 0 Calma 3 Oeste 0 -- -- 43
2019-09-27 00:00:00 21.9 0 Calma 2 Este 0 -- -- 40
2019-09-26 23:00:00 22.7 0 Calma 3 Norte 0 -- -- 38
2019-09-26 22:00:00 23.7 0 Calma 3 Oeste 0 -- -- 37
2019-09-26 21:00:00 24.6 0 Calma 7 Oeste 0 -- -- 36
2019-09-26 20:00:00 26.6 2 Noroeste 10 Noroeste 0 -- -- 33
2019-09-26 19:00:00 28.8 3 Noroeste 18 Sur 0 -- -- 31
2019-09-26 18:00:00 30.9 6 Oeste 21 Sudoeste 0 -- -- 25
2019-09-26 17:00:00 31.3 7 Sudoeste 26 Sur 0 -- -- 26
2019-09-26 16:00:00 30.8 6 Sudoeste 15 Sur 0 -- -- 27
2019-09-26 15:00:00 29.2 9 Sur 19 Sur 0 -- -- 30
2019-09-26 14:00:00 26.7 3 Norte 10 Nordeste 0 -- -- 35
2019-09-26 13:00:00 26.1 3 Sur 11 Sur 0 -- -- 38
2019-09-26 12:00:00 23.8 3 Oeste 7 Sudoeste 0 -- -- 44
2019-09-26 11:00:00 20.2 5 Sur 7 Sudoeste 0 -- -- 56
2019-09-26 10:00:00 15.6 2 Sudoeste 5 Sudoeste 0 -- -- 72
2019-09-26 09:00:00 14.6 0 Calma 4 Nordeste 0 -- -- 71
2019-09-26 08:00:00 14.3 0 Calma 4 Sudoeste 0 -- -- 72
2019-09-26 07:00:00 15.1 0 Calma 4 Nordeste 0 -- -- 68
2019-09-26 06:00:00 15.2 0 Calma 4 Sur 0 -- -- 69
2019-09-26 05:00:00 15.9 0 Calma 5 Nordeste 0 -- -- 65
2019-09-26 04:00:00 16.7 0 Calma 2 Sur 0 -- -- 62
2019-09-26 03:00:00 17.9 0 Calma 3 Norte 0 -- -- 56
2019-09-26 02:00:00 18.4 0 Calma 3 Sudeste 0 -- -- 54
2019-09-26 01:00:00 19 0 Calma 3 Nordeste 0 -- -- 53
2019-09-26 00:00:00 19.6 0 Calma 2 Sudeste 0 -- -- 50
2019-09-25 23:00:00 20.7 0 Calma 5 Oeste 0 -- -- 48
2019-09-25 22:00:00 21.6 2 Noroeste 5 Oeste 0 -- -- 45
2019-09-25 21:00:00 22.1 0 Calma 5 Noroeste 0 -- -- 46
2019-09-25 20:00:00 23.4 2 Oeste 13 Oeste 0 -- -- 42
2019-09-25 19:00:00 25 3 Noroeste 15 Noroeste 0 -- -- 38
2019-09-25 18:00:00 26.2 4 Noroeste 15 Noroeste 0 -- -- 36
2019-09-25 17:00:00 26.2 8 Oeste 17 Oeste 0 -- -- 36
2019-09-25 16:00:00 25.6 6 Oeste 21 Oeste 0 -- -- 37
2019-09-25 15:00:00 24 4 Noroeste 15 Oeste 0 -- -- 39
2019-09-25 14:00:00 22.9 4 Noroeste 18 Noroeste 0 -- -- 40
2019-09-25 13:00:00 22.3 5 Noroeste 18 Oeste 0 -- -- 44
2019-09-25 12:00:00 21.1 5 Oeste 13 Oeste 0 -- -- 48
2019-09-25 11:00:00 18.9 5 Oeste 10 Sudoeste 0 -- -- 65
2019-09-25 10:00:00 15.5 3 Oeste 10 Sudoeste 0 -- -- 83
2019-09-25 09:00:00 14.4 6 Noroeste 13 Oeste 0 -- -- 89
2019-09-25 08:00:00 14.7 4 Noroeste 13 Oeste 0 -- -- 86
2019-09-25 07:00:00 15.2 0 Calma 10 Oeste 0 -- -- 81
2019-09-25 06:00:00 16.3 3 Norte 14 Noroeste 0 -- -- 74
2019-09-25 05:00:00 17.3 5 Oeste 25 Oeste 0 -- -- 71
2019-09-25 04:00:00 18.8 8 Noroeste 18 Oeste 0 -- -- 71
2019-09-25 03:00:00 19.1 2 Noroeste 13 Norte 0 -- -- 78
2019-09-25 02:00:00 20 3 Noroeste 13 Oeste 0 -- -- 80
2019-09-25 01:00:00 20.6 2 Noroeste 10 Noroeste 0 -- -- 77
2019-09-25 00:00:00 21.3 2 Noroeste 14 Norte 0 -- -- 74
2019-09-24 23:00:00 22.1 2 Norte 10 Noroeste 0 -- -- 70
2019-09-24 22:00:00 23.1 3 Oeste 15 Oeste 0 -- -- 64
2019-09-24 21:00:00 23.9 6 Noroeste 17 Noroeste 0 -- -- 58
2019-09-24 20:00:00 24.9 6 Noroeste 17 Oeste 0 -- -- 51
2019-09-24 19:00:00 26.9 5 Noroeste 22 Oeste 0 -- -- 36
2019-09-24 18:00:00 29.3 7 Oeste 25 Oeste 0 -- -- 29
2019-09-24 17:00:00 29.5 8 Oeste 19 Oeste 0 -- -- 30
2019-09-24 16:00:00 29 6 Oeste 15 Oeste 0 -- -- 32
2019-09-24 15:00:00 27.9 4 Oeste 13 Noroeste 0 -- -- 35
2019-09-24 14:00:00 27.2 6 Oeste 15 Sudoeste 0 -- -- 35
2019-09-24 13:00:00 25.1 9 Oeste 17 Sudoeste 0 -- -- 39
2019-09-24 12:00:00 22.6 6 Sur 13 Sur 0 -- -- 48
2019-09-24 11:00:00 19.2 6 Sur 10 Sudoeste 0 -- -- 59
2019-09-24 10:00:00 15.2 0 Calma 4 Sudoeste 0 -- -- 72
2019-09-24 09:00:00 13.7 0 Calma 2 Noroeste 0 -- -- 74
2019-09-24 08:00:00 13.3 0 Calma 4 Sudoeste 0 -- -- 76
2019-09-24 07:00:00 13.7 0 Calma 5 Sur 0 -- -- 74
2019-09-24 06:00:00 14.6 2 Sur 4 Sur 0 -- -- 69
2019-09-24 05:00:00 15.5 0 Calma 2 Sudeste 0 -- -- 64
2019-09-24 04:00:00 16.3 0 Calma 2 Norte 0 -- -- 58
2019-09-24 03:00:00 17 0 Calma 2 Nordeste 0 -- -- 55
2019-09-24 02:00:00 17.9 0 Calma 0 Calma 0 -- -- 52
2019-09-24 01:00:00 18.6 0 Calma 0 Calma 0 -- -- 50
2019-09-24 00:00:00 19.2 0 Calma 0 Calma 0 -- -- 47
2019-09-23 23:00:00 20.4 0 Calma 3 Oeste 0 -- -- 43
2019-09-23 22:00:00 20.9 0 Calma 3 Este 0 -- -- 40
2019-09-23 21:00:00 21.7 0 Calma 4 Oeste 0 -- -- 37
2019-09-23 20:00:00 23.6 0 Calma 9 Oeste 0 -- -- 37
2019-09-23 19:00:00 25.3 3 Noroeste 11 Oeste 0 -- -- 32
2019-09-23 18:00:00 26.7 4 Oeste 10 Oeste 0 -- -- 30
2019-09-23 17:00:00 26.5 5 Norte 12 Norte 0 -- -- 35
2019-09-23 16:00:00 26.4 4 Sudoeste 14 Sudoeste 0 -- -- 39
2019-09-23 15:00:00 24.9 6 Sudoeste 13 Norte 0 -- -- 43
2019-09-23 14:00:00 23 4 Nordeste 12 Nordeste 0 -- -- 43
2019-09-23 13:00:00 23 6 Sudoeste 12 Sudoeste 0 -- -- 49
2019-09-23 12:00:00 20.4 5 Sur 9 Sur 0 -- -- 60
2019-09-23 11:00:00 17.3 4 Sur 8 Sur 0 -- -- 74
2019-09-23 10:00:00 14.3 0 Calma 2 Sur 0 -- -- 88
2019-09-23 09:00:00 12.6 2 Norte 3 Norte 0 -- -- 87
2019-09-23 08:00:00 12.5 0 Calma 4 Sur 0 -- -- 86
2019-09-23 07:00:00 13 0 Calma 4 Nordeste 0 -- -- 85
2019-09-23 06:00:00 13.4 0 Calma 2 Norte 0 -- -- 83
2019-09-23 05:00:00 13.7 0 Calma 2 Sur 0 -- -- 81
2019-09-23 04:00:00 14.3 0 Calma 3 Sudoeste 0 -- -- 78
2019-09-23 03:00:00 15.3 0 Calma 3 Nordeste 0 -- -- 74
2019-09-23 02:00:00 15.8 0 Calma 3 Sudeste 0 -- -- 71
2019-09-23 01:00:00 16.2 0 Calma 5 Oeste 0 -- -- 68
2019-09-23 00:00:00 16.9 0 Calma 4 Noroeste 0 -- -- 63
2019-09-22 23:00:00 17.7 0 Calma 6 Oeste 0 -- -- 59
2019-09-22 22:00:00 18.2 0 Calma 6 Oeste 0 -- -- 57
2019-09-22 21:00:00 18.6 0 Calma 10 Oeste 0 -- -- 58
2019-09-22 20:00:00 19.8 3 Noroeste 15 Noroeste 0 -- -- 54
2019-09-22 19:00:00 21.1 4 Noroeste 18 Noroeste 0 -- -- 52
2019-09-22 18:00:00 22.3 5 Oeste 21 Oeste 0 -- -- 50
2019-09-22 17:00:00 23.2 8 Oeste 24 Oeste 0 -- -- 51
2019-09-22 16:00:00 21 6 Oeste 20 Oeste 0 -- -- 57
2019-09-22 15:00:00 20.7 9 Oeste 21 Oeste 0 -- -- 61
2019-09-22 14:00:00 19.1 8 Oeste 18 Oeste 0 -- -- 64
2019-09-22 13:00:00 18.1 7 Oeste 18 Oeste 0 -- -- 74
2019-09-22 12:00:00 16.6 5 Oeste 14 Oeste 0 -- -- 88
2019-09-22 11:00:00 15 2 Noroeste 22 Oeste 0.2 -- -- 94
2019-09-22 10:00:00 15.2 5 Noroeste 21 Oeste 0 -- -- 96
2019-09-22 09:00:00 16 5 Noroeste 17 Sur 2 -- -- 98
2019-09-22 08:00:00 16.6 10 Sur 21 Sur 0.6 -- -- 97
2019-09-22 07:00:00 17.1 14 Sur 28 Sur 0 -- -- 96
2019-09-22 06:00:00 17.2 12 Sur 22 Sur 0 -- -- 93
2019-09-22 05:00:00 16.9 8 Sudoeste 32 Sudoeste 0.4 -- -- 96
2019-09-22 04:00:00 17.7 14 Sur 30 Sur 0.6 -- -- 91
2019-09-22 03:00:00 18.5 15 Sur 25 Sur 0 -- -- 84
2019-09-22 02:00:00 18.3 11 Sur 26 Sur 0 -- -- 84
2019-09-22 01:00:00 18.4 10 Sur 25 Sur 0 -- -- 83
2019-09-22 00:00:00 18.7 18 Sur 33 Sur 0 -- -- 81
2019-09-21 23:00:00 19.4 15 Sur 25 Sur 0 -- -- 73
2019-09-21 22:00:00 19.9 10 Sur 18 Sudoeste 0 -- -- 69
2019-09-21 21:00:00 20.6 9 Sur 27 Sudoeste 0 -- -- 67
2019-09-21 20:00:00 21 11 Sudoeste 22 Sur 0 -- -- 62
2019-09-21 19:00:00 21.6 14 Sudoeste 27 Sudoeste 0 -- -- 57
2019-09-21 18:00:00 21.6 17 Sudoeste 31 Sudoeste 0 -- -- 58
2019-09-21 17:00:00 21.5 17 Sur 35 Sur 0 -- -- 63
2019-09-21 16:00:00 21.4 23 Sudoeste 42 Sudoeste 0 -- -- 66
2019-09-21 15:00:00 22.3 19 Sur 39 Sudoeste 0 -- -- 60
2019-09-21 14:00:00 22.2 18 Sur 33 Sur 0 -- -- 62
2019-09-21 13:00:00 20.9 19 Sur 33 Sudoeste 0 -- -- 70
2019-09-21 12:00:00 20.3 17 Sur 27 Sur 0 -- -- 75
2019-09-21 11:00:00 19.9 17 Sudoeste 25 Sudoeste 0 -- -- 76
2019-09-21 10:00:00 19.4 4 Sudeste 15 Sudeste 0 -- -- 79
2019-09-21 09:00:00 18.7 7 Sur 14 Sudeste 0 -- -- 80
2019-09-21 08:00:00 18.3 9 Sur 14 Sur 0 -- -- 81
2019-09-21 07:00:00 18.3 4 Sur 9 Sur 0 -- -- 80
2019-09-21 06:00:00 18.5 4 Sudoeste 17 Sudoeste 0 -- -- 79
2019-09-21 05:00:00 19 8 Sudoeste 15 Sur 0 -- -- 77
2019-09-21 04:00:00 19.6 5 Noroeste 15 Oeste 0 -- -- 72
2019-09-21 03:00:00 19.9 4 Noroeste 16 Oeste 0 -- -- 67
2019-09-21 02:00:00 19.8 5 Oeste 19 Sur 0 -- -- 66
2019-09-21 01:00:00 20.6 8 Oeste 24 Sudoeste 0 -- -- 61
2019-09-21 00:00:00 21.5 5 Sudoeste 24 Sudoeste 0 -- -- 53
2019-09-20 23:00:00 21.5 10 Sudoeste 33 Sudoeste 0 -- -- 60
2019-09-20 22:00:00 22.2 6 Sudoeste 21 Sudoeste 0 -- -- 55
2019-09-20 21:00:00 22.9 12 Sudoeste 39 Sur 0 -- -- 53
2019-09-20 20:00:00 23.9 12 Sudoeste 35 Sur 0 -- -- 49
2019-09-20 19:00:00 24.6 18 Sudoeste 37 Sudoeste 0 -- -- 45
2019-09-20 18:00:00 25.7 17 Sur 30 Sur 0 -- -- 44
2019-09-20 17:00:00 26.6 17 Sudoeste 34 Sur 0 -- -- 45
2019-09-20 16:00:00 25.8 14 Sur 22 Sudoeste 0 -- -- 45
2019-09-20 15:00:00 24.9 6 Sur 13 Sudoeste 0 -- -- 46
2019-09-20 14:00:00 23.9 4 Sudeste 12 Sur 0 -- -- 49
2019-09-20 13:00:00 23.6 6 Sur 12 Sur 0 -- -- 52
2019-09-20 12:00:00 22.5 6 Sur 10 Sur 0 -- -- 53
2019-09-20 11:00:00 21.4 0 Calma 4 Oeste 0 -- -- 52
2019-09-20 10:00:00 19.8 0 Calma 2 Sudeste 0 -- -- 58
2019-09-20 09:00:00 18.6 0 Calma 4 Sur 0 -- -- 56
2019-09-20 08:00:00 18.7 0 Calma 2 Oeste 0 -- -- 56
2019-09-20 07:00:00 19.5 0 Calma 8 Sudoeste 0 -- -- 52
2019-09-20 06:00:00 20.1 5 Sudoeste 10 Sur 0 -- -- 49
2019-09-20 05:00:00 19.9 8 Sudoeste 10 Sudoeste 0 -- -- 50
2019-09-20 04:00:00 20.6 6 Sur 12 Sudoeste 0 -- -- 47
2019-09-20 03:00:00 21.1 8 Sudoeste 11 Sudoeste 0 -- -- 46
2019-09-20 02:00:00 21.6 8 Sudoeste 11 Sudoeste 0 -- -- 44
2019-09-20 01:00:00 22.2 6 Sudoeste 10 Sur 0 -- -- 40
2019-09-20 00:00:00 23.2 3 Sudoeste 12 Sudoeste 0 -- -- 36
2019-09-19 23:00:00 23.7 9 Sudoeste 17 Sudoeste 0 -- -- 34
2019-09-19 22:00:00 24.9 9 Sudoeste 17 Sur 0 -- -- 32
2019-09-19 21:00:00 26.3 6 Sudoeste 22 Sur 0 -- -- 33
2019-09-19 20:00:00 27.7 0 Calma 11 Sudoeste 0 -- -- 33
2019-09-19 19:00:00 29.8 6 Oeste 16 Sur 0 -- -- 27
2019-09-19 18:00:00 30.3 6 Nordeste 19 Oeste 0 -- -- 28
2019-09-19 17:00:00 31.6 11 Sudoeste 23 Sudoeste 0 -- -- 27
2019-09-19 16:00:00 29.8 4 Noroeste 21 Sudoeste 0 -- -- 32
2019-09-19 15:00:00 30.2 6 Sudeste 17 Sur 0 -- -- 30
2019-09-19 14:00:00 29.3 9 Sudoeste 19 Sudoeste 0 -- -- 36
2019-09-19 13:00:00 27.4 11 Sur 16 Sur 0 -- -- 39
2019-09-19 12:00:00 24.6 7 Sudoeste 15 Sur 0 -- -- 50
2019-09-19 11:00:00 21.9 3 Noroeste 9 Sur 0 -- -- 59
2019-09-19 10:00:00 18.5 5 Sur 8 Sur 0 -- -- 73
2019-09-19 09:00:00 17.3 0 Calma 2 Sur 0 -- -- 72
2019-09-19 08:00:00 17.6 0 Calma 4 Norte 0 -- -- 69
2019-09-19 07:00:00 18.3 0 Calma 8 Oeste 0 -- -- 65
2019-09-19 06:00:00 18.8 0 Calma 4 Oeste 0 -- -- 62
2019-09-19 05:00:00 19.5 0 Calma 5 Oeste 0 -- -- 59
2019-09-19 04:00:00 20.5 0 Calma 4 Oeste 0 -- -- 56
2019-09-19 03:00:00 21.3 0 Calma 9 Sur 0 -- -- 55
2019-09-19 02:00:00 22.1 6 Sudoeste 19 Sudoeste 0 -- -- 54
2019-09-19 01:00:00 22.9 13 Sudoeste 17 Sur 0 -- -- 52
2019-09-19 00:00:00 23.8 10 Sudoeste 18 Sudoeste 0 -- -- 50
2019-09-18 23:00:00 24.8 8 Sudoeste 17 Sudoeste 0 -- -- 48
2019-09-18 22:00:00 25.2 4 Sur 8 Sudoeste 0 -- -- 45
2019-09-18 21:00:00 26.2 0 Calma 8 Sur 0 -- -- 42
2019-09-18 20:00:00 27.6 7 Sur 10 Sur 0 -- -- 38
2019-09-18 19:00:00 29.3 4 Sudoeste 17 Sudoeste 0 -- -- 34
2019-09-18 18:00:00 30.3 8 Sur 17 Sudoeste 0 -- -- 32
2019-09-18 17:00:00 29.7 4 Oeste 20 Sur 0 -- -- 35
2019-09-18 16:00:00 30.4 5 Oeste 15 Sur 0 -- -- 37
2019-09-18 15:00:00 29.6 5 Sudeste 17 Sur 0 -- -- 40
2019-09-18 14:00:00 28.2 4 Sudeste 12 Sur 0 -- -- 47
2019-09-18 13:00:00 26.4 3 Noroeste 11 Sudoeste 0 -- -- 52
2019-09-18 12:00:00 25.2 7 Sur 13 Sur 0 -- -- 56
2019-09-18 11:00:00 21.7 2 Oeste 8 Sudoeste 0 -- -- 65
2019-09-18 10:00:00 19.5 2 Sudeste 7 Nordeste 0 -- -- 71
2019-09-18 09:00:00 17.6 2 Sudeste 6 Nordeste 0 -- -- 77
2019-09-18 08:00:00 17.6 0 Calma 5 Norte 0 -- -- 74
2019-09-18 07:00:00 18.4 3 Norte 8 Este 0 -- -- 68
2019-09-18 06:00:00 18.9 3 Este 8 Este 0 -- -- 67
2019-09-18 05:00:00 19.3 5 Este 17 Este 0 -- -- 68
2019-09-18 04:00:00 19.4 7 Este 22 Este 0 -- -- 74
2019-09-18 03:00:00 19.6 6 Este 15 Nordeste 0 -- -- 69
2019-09-18 02:00:00 20.1 3 Este 18 Este 0 -- -- 59
2019-09-18 01:00:00 20.8 8 Nordeste 22 Norte 0 -- -- 58
2019-09-18 00:00:00 22.7 3 Norte 12 Sur 0 -- -- 60
2019-09-17 23:00:00 23.3 7 Sudoeste 19 Sudoeste 0 -- -- 58
2019-09-17 22:00:00 23.9 10 Sur 22 Sur 0 -- -- 56
2019-09-17 21:00:00 23.9 0 Calma 9 Este 0 -- -- 58
2019-09-15 18:00:00 -- -- -- -- -- -- -- -- --
2019-09-15 17:00:00 -- -- -- -- -- -- -- -- --
2019-09-15 16:00:00 25.5 5 Sudeste 9 Sudeste 0 -- -- 58
2019-09-15 15:00:00 24.5 3 Sudeste 10 Este 0 -- -- 62
2019-09-15 14:00:00 23.9 4 Sudeste 13 Sur 0 -- -- 68
2019-09-15 13:00:00 24.1 8 Sur 15 Sur 0 -- -- 68
2019-09-15 12:00:00 22.5 6 Sudeste 12 Sudeste 0 -- -- 76
2019-09-15 11:00:00 20 2 Sudoeste 11 Nordeste 0 -- -- 89
2019-09-15 10:00:00 17.8 3 Sur 9 Este 0 -- -- 96
2019-09-15 09:00:00 16.8 2 Este 10 Este 0 -- -- 97
2019-09-15 08:00:00 16.5 0 Calma 6 Nordeste 0 -- -- 97
2019-09-15 07:00:00 16.8 0 Calma 10 Este 0 -- -- 97
2019-09-15 06:00:00 17.2 3 Este 12 Norte 1.2 -- -- 97
2019-09-15 05:00:00 17.3 4 Sudeste 12 Sudeste 0.2 -- -- 96
2019-09-15 04:00:00 17.5 2 Este 8 Este 0 -- -- 94
2019-09-15 03:00:00 17.7 0 Calma 8 Norte 0 -- -- 95
2019-09-15 02:00:00 17.9 4 Nordeste 10 Este 0.2 -- -- 94
2019-09-15 01:00:00 18 2 Sur 19 Este 1 -- -- 94
2019-09-15 00:00:00 18.1 11 Este 23 Este 4 -- -- 92